Alameda, California
Current Conditions -  °F | °C
As of 9:53 PM on Tuesday 25 Nov 2014 (Local Time) from KOAK Reporting Station
Clear Clear  
Wind Chill: 12°   Ceiling: Unl
Heat Index: 12°   Visibility: 10mi
Dew Point:   Wind: 8mph
Humidity: 66%   Direction: 100°E
Pressure: 30.35"   Gusts: NA
Location:  37.77°N, 122.24°W
Report Text: KOAK 260553Z 10007KT 10SM CLR 12/06 A3035 RMK AO2 SLP276 T01220061 10167 20122 58001
Loading
Personal Weather Stations






























Interactive Weather Map New forecast layout! Learn more

10-Day Weather Forecast

Advertisements
Track Severe Weather on mobile